createdAt,value
2023-03-08T11:20:21.817Z,68.80
2023-03-08T11:23:02.836Z,70.00
2023-03-08T11:25:40.487Z,71.20
2023-03-08T11:28:23.408Z,71.80
2023-03-08T11:31:02.289Z,73.60
2023-03-08T11:33:47.213Z,71.50
2023-03-08T11:36:40.217Z,76.70
2023-03-08T11:39:19.899Z,76.20
2023-03-08T11:41:56.415Z,77.40
2023-03-08T11:45:01.904Z,75.20
2023-03-08T11:48:05.000Z,76.70
2023-03-08T11:50:38.412Z,72.30
2023-03-08T11:53:19.303Z,76.10
2023-03-08T11:56:19.270Z,73.60
2023-03-08T11:58:52.850Z,70.20
2023-03-08T12:01:25.101Z,71.70
2023-03-08T12:04:14.759Z,70.00
2023-03-08T12:06:45.363Z,62.30
2023-03-08T12:09:24.150Z,60.20
2023-03-08T12:12:00.919Z,60.90
2023-03-08T12:14:33.662Z,61.50
2023-03-08T12:17:10.750Z,61.50
2023-03-08T12:19:44.261Z,59.80
2023-03-08T12:22:45.176Z,60.00
2023-03-08T12:25:35.410Z,58.20
2023-03-08T12:28:13.958Z,56.30
2023-03-08T12:30:56.465Z,55.00
2023-03-08T12:33:27.869Z,56.70
2023-03-08T12:35:58.789Z,56.20
2023-03-08T12:38:52.030Z,55.90
2023-03-08T12:41:27.272Z,56.70
2023-03-08T12:44:43.824Z,55.70
2023-03-08T12:47:23.186Z,55.40
2023-03-08T12:52:44.198Z,59.20
2023-03-08T12:55:21.803Z,60.50
2023-03-08T12:57:55.570Z,59.70
2023-03-08T13:00:43.868Z,56.80
2023-03-08T13:03:30.197Z,56.10
2023-03-08T13:05:59.465Z,59.20
2023-03-08T13:08:35.691Z,58.90
2023-03-08T13:19:22.820Z,60.00
2023-03-08T13:22:12.996Z,60.00
2023-03-08T13:24:48.867Z,61.30
2023-03-08T13:27:30.457Z,57.10
2023-03-08T13:30:17.434Z,59.50
2023-03-08T13:33:04.116Z,63.70
2023-03-08T13:35:33.119Z,62.20
2023-03-08T13:38:02.392Z,65.00
2023-03-08T13:43:18.707Z,68.00
2023-03-08T13:48:55.237Z,59.20
2023-03-08T13:51:27.729Z,58.20
2023-03-08T13:53:57.244Z,59.60
2023-03-08T13:56:28.490Z,59.00
2023-03-08T13:59:00.658Z,58.60
2023-03-08T14:01:32.164Z,57.40
2023-03-08T14:04:01.513Z,55.20
2023-03-08T14:07:11.718Z,55.20
2023-03-08T14:10:01.219Z,56.90
2023-03-08T14:12:48.685Z,57.70
2023-03-08T14:15:20.164Z,56.10
2023-03-08T14:17:51.513Z,56.00
2023-03-08T14:20:23.291Z,54.90
2023-03-08T14:25:42.684Z,54.60
2023-03-08T14:28:35.969Z,54.80
2023-03-08T14:31:28.002Z,54.90
2023-03-08T14:34:18.107Z,55.40
2023-03-08T14:36:53.876Z,56.30
2023-03-08T14:39:24.786Z,57.00
2023-03-08T14:42:12.323Z,58.00
2023-03-08T14:44:41.393Z,58.30
2023-03-08T14:47:12.269Z,58.10
2023-03-08T14:49:42.802Z,58.50
2023-03-08T14:52:30.957Z,59.10
2023-03-08T14:55:18.535Z,59.70
2023-03-08T14:57:47.707Z,59.80
2023-03-08T15:00:18.763Z,60.40
2023-03-08T15:02:47.754Z,61.70
2023-03-08T15:05:38.241Z,61.10
2023-03-08T15:08:29.411Z,61.20
2023-03-08T15:10:58.464Z,61.60
2023-03-08T15:13:46.342Z,61.40
2023-03-08T15:16:15.412Z,61.10
2023-03-08T15:18:44.873Z,61.80
2023-03-08T15:21:21.067Z,62.90
2023-03-08T15:23:50.358Z,62.20
2023-03-08T15:26:25.519Z,62.50
2023-03-08T15:28:54.469Z,62.80
2023-03-08T15:31:23.555Z,62.30
2023-03-08T15:33:52.671Z,62.50
2023-03-08T15:36:23.070Z,63.20
2023-03-08T15:38:52.056Z,63.20
2023-03-08T15:41:21.075Z,63.40
2023-03-08T15:46:36.827Z,64.90
2023-03-08T15:49:06.133Z,65.60
2023-03-08T15:54:59.076Z,74.00
2023-03-08T15:57:28.144Z,78.20
2023-03-08T15:59:57.131Z,80.30
2023-03-08T16:02:26.166Z,80.50
2023-03-08T16:05:31.233Z,82.10
2023-03-08T16:08:03.351Z,82.70
2023-03-08T16:10:52.434Z,83.30
2023-03-08T16:13:22.238Z,84.50
2023-03-08T16:15:51.239Z,84.10
2023-03-08T16:18:20.304Z,84.30
2023-03-08T16:23:36.952Z,84.60
2023-03-08T16:26:15.169Z,84.50
2023-03-08T16:28:47.311Z,84.50
2023-03-08T16:31:21.391Z,84.60
2023-03-08T16:33:50.536Z,84.30
2023-03-08T16:36:37.417Z,84.10
2023-03-08T16:41:54.836Z,84.30
2023-03-08T16:44:25.964Z,84.50
2023-03-08T16:47:12.557Z,83.70
2023-03-08T16:49:41.769Z,83.80
2023-03-08T16:52:10.671Z,84.30
2023-03-08T16:54:41.051Z,84.10
2023-03-08T16:57:19.187Z,85.10
2023-03-08T17:00:06.327Z,85.00
2023-03-08T17:02:35.401Z,84.60
2023-03-08T17:05:05.072Z,84.40
2023-03-08T17:07:34.072Z,85.10
2023-03-08T17:10:22.967Z,85.60
2023-03-08T17:12:52.049Z,86.40
2023-03-08T17:15:20.963Z,87.20
2023-03-08T17:17:50.035Z,86.70
2023-03-08T17:20:37.191Z,87.10
2023-03-08T17:23:07.185Z,87.00
2023-03-08T17:25:40.909Z,88.10
2023-03-08T17:28:10.940Z,88.50
2023-03-08T17:30:41.593Z,89.20
2023-03-08T17:33:12.933Z,90.10
2023-03-08T17:35:43.208Z,90.10
2023-03-08T17:38:12.157Z,90.00
2023-03-08T17:41:01.128Z,90.00
2023-03-08T17:43:30.064Z,90.00
2023-03-08T17:46:00.006Z,90.60
2023-03-08T17:49:06.201Z,90.80
2023-03-08T17:51:39.807Z,91.20
2023-03-08T17:56:41.211Z,90.30
2023-03-08T17:59:14.390Z,90.60
2023-03-08T18:02:02.022Z,90.40
2023-03-08T18:04:31.291Z,90.50
2023-03-08T18:07:17.556Z,90.50
2023-03-08T18:09:47.712Z,90.60
2023-03-08T18:12:18.395Z,90.70
2023-03-08T18:14:50.702Z,90.80
2023-03-08T18:17:20.399Z,91.10
2023-03-08T18:19:49.725Z,91.30
2023-03-08T18:22:18.751Z,91.10
2023-03-08T18:24:47.793Z,91.00
2023-03-08T18:27:18.264Z,91.40
2023-03-08T18:29:47.333Z,91.70
2023-03-08T18:35:02.895Z,91.00
2023-03-08T18:40:37.386Z,91.20
2023-03-08T18:43:09.249Z,91.20
2023-03-08T18:45:38.347Z,91.60
2023-03-08T18:48:07.339Z,91.40
2023-03-08T18:54:00.962Z,92.30
2023-03-08T18:56:30.852Z,92.50
2023-03-08T18:59:03.014Z,92.60
2023-03-08T19:04:19.518Z,93.00
2023-03-08T19:06:48.611Z,93.10
2023-03-08T19:09:18.803Z,93.10
2023-03-08T19:11:48.713Z,93.30
2023-03-08T19:14:19.597Z,93.40
2023-03-08T19:16:48.599Z,93.50
2023-03-08T19:22:22.198Z,93.50
2023-03-08T19:24:51.097Z,93.50
2023-03-08T19:27:20.168Z,93.50
2023-03-08T19:32:55.193Z,93.60
2023-03-08T19:35:24.370Z,93.30
2023-03-08T19:37:53.550Z,93.70
2023-03-08T19:40:22.684Z,93.80
2023-03-08T19:43:10.304Z,93.70
2023-03-08T19:45:49.105Z,93.70
2023-03-08T19:48:18.601Z,93.80
2023-03-08T19:50:48.878Z,93.50
2023-03-08T19:53:17.879Z,93.90
2023-03-08T19:55:51.550Z,94.20
2023-03-08T19:58:21.506Z,94.40
2023-03-08T20:00:51.974Z,94.10
2023-03-08T20:03:21.326Z,93.80
2023-03-08T20:05:50.426Z,93.60
2023-03-08T20:08:38.708Z,93.60
2023-03-08T20:11:26.027Z,93.50
2023-03-08T20:13:55.234Z,93.70
2023-03-08T20:16:26.237Z,93.70
2023-03-08T20:18:56.231Z,93.70
2023-03-08T20:21:28.194Z,93.60
2023-03-08T20:24:18.470Z,93.80
2023-03-08T20:26:47.874Z,93.80
2023-03-08T20:29:17.978Z,93.60
2023-03-08T20:31:50.171Z,93.20
2023-03-08T20:34:19.661Z,92.50
2023-03-08T20:36:49.382Z,92.30
2023-03-08T20:39:18.567Z,92.90
2023-03-08T20:41:47.661Z,92.80
2023-03-08T20:44:18.774Z,92.60
2023-03-08T20:47:08.104Z,92.60
2023-03-08T20:49:37.081Z,92.50
2023-03-08T20:54:53.256Z,92.90
2023-03-08T20:57:40.566Z,92.90
2023-03-08T21:00:30.957Z,92.90
2023-03-08T21:03:01.599Z,92.90
2023-03-08T21:05:34.652Z,93.00
2023-03-08T21:08:03.956Z,92.90
2023-03-08T21:10:53.569Z,92.90
2023-03-08T21:13:22.814Z,93.30
2023-03-08T21:18:49.806Z,95.80
2023-03-08T21:24:16.044Z,95.60
2023-03-08T21:26:45.578Z,95.60
2023-03-08T21:31:48.442Z,92.90
2023-03-08T21:34:20.168Z,93.20
2023-03-08T21:39:37.679Z,93.30
2023-03-08T21:42:07.892Z,93.40
2023-03-08T21:44:55.200Z,93.70
2023-03-08T21:47:24.260Z,93.90
2023-03-08T21:49:54.833Z,94.10
2023-03-08T21:55:11.654Z,94.30
2023-03-08T21:57:41.875Z,94.50
2023-03-08T22:00:29.748Z,94.80
2023-03-08T22:02:58.820Z,95.00
2023-03-08T22:05:29.354Z,95.50
2023-03-08T22:07:58.581Z,95.50
2023-03-08T22:10:27.570Z,95.70
2023-03-08T22:12:56.709Z,95.80
2023-03-08T22:15:25.831Z,95.90
2023-03-08T22:17:55.226Z,95.90
2023-03-08T22:20:42.570Z,96.10
2023-03-08T22:23:13.042Z,96.20
2023-03-08T22:26:00.645Z,96.10
2023-03-08T22:28:29.634Z,96.10
2023-03-08T22:30:58.666Z,96.60
2023-03-08T22:33:27.789Z,96.70
2023-03-08T22:36:14.061Z,97.10
2023-03-08T22:38:44.738Z,97.10
2023-03-08T22:41:16.227Z,97.20
2023-03-08T22:43:45.709Z,97.00
2023-03-08T22:46:16.387Z,97.10
2023-03-08T22:48:47.001Z,97.40
2023-03-08T22:51:17.818Z,97.40
2023-03-08T22:53:48.420Z,97.50
2023-03-08T22:56:21.608Z,97.80
2023-03-08T22:59:09.206Z,97.90
2023-03-08T23:04:24.471Z,98.10
2023-03-08T23:06:53.960Z,98.30
2023-03-08T23:09:24.958Z,98.40
2023-03-08T23:11:54.022Z,99.00
2023-03-08T23:14:41.952Z,99.30
2023-03-08T23:17:11.875Z,99.50
2023-03-08T23:20:16.790Z,99.60
2023-03-08T23:22:45.687Z,99.50
2023-03-08T23:25:16.340Z,99.20
2023-03-08T23:27:45.799Z,99.30
2023-03-08T23:30:33.416Z,99.40
2023-03-08T23:33:02.416Z,99.60
2023-03-08T23:35:31.341Z,99.70
2023-03-08T23:38:00.414Z,99.90
2023-03-08T23:40:30.979Z,99.90
2023-03-08T23:43:00.121Z,99.90
2023-03-08T23:45:46.362Z,99.90
2023-03-08T23:48:15.237Z,99.90
2023-03-08T23:50:44.141Z,99.90
2023-03-08T23:53:13.169Z,99.90
2023-03-08T23:55:44.171Z,99.90
2023-03-08T23:58:31.635Z,99.90
